sensor_id;sensor_type;location;lat;lon;timestamp;temperature;humidity
11597;DHT22;5854;48.072;16.286;2023-06-14T00:02:36;19.10;49.40
11597;DHT22;5854;48.072;16.286;2023-06-14T00:05:10;18.60;47.50
11597;DHT22;5854;48.072;16.286;2023-06-14T00:07:57;18.20;48.70
11597;DHT22;5854;48.072;16.286;2023-06-14T00:10:38;18.60;53.00
11597;DHT22;5854;48.072;16.286;2023-06-14T00:13:23;19.00;51.70
11597;DHT22;5854;48.072;16.286;2023-06-14T00:16:14;19.30;51.30
11597;DHT22;5854;48.072;16.286;2023-06-14T00:19:04;19.20;50.60
11597;DHT22;5854;48.072;16.286;2023-06-14T00:22:04;19.00;47.00
11597;DHT22;5854;48.072;16.286;2023-06-14T00:25:11;19.10;51.20
11597;DHT22;5854;48.072;16.286;2023-06-14T00:27:59;18.80;48.90
11597;DHT22;5854;48.072;16.286;2023-06-14T00:31:10;19.00;51.10
11597;DHT22;5854;48.072;16.286;2023-06-14T00:34:02;18.40;48.70
11597;DHT22;5854;48.072;16.286;2023-06-14T00:36:48;18.20;52.30
11597;DHT22;5854;48.072;16.286;2023-06-14T00:39:49;18.50;52.90
11597;DHT22;5854;48.072;16.286;2023-06-14T00:42:47;18.60;52.30
11597;DHT22;5854;48.072;16.286;2023-06-14T00:45:47;19.00;52.20
11597;DHT22;5854;48.072;16.286;2023-06-14T00:48:57;18.70;48.80
11597;DHT22;5854;48.072;16.286;2023-06-14T00:51:56;18.50;48.40
11597;DHT22;5854;48.072;16.286;2023-06-14T00:54:44;18.60;49.50
11597;DHT22;5854;48.072;16.286;2023-06-14T00:57:35;18.50;49.70
11597;DHT22;5854;48.072;16.286;2023-06-14T01:00:24;18.40;50.60
11597;DHT22;5854;48.072;16.286;2023-06-14T01:03:15;18.20;51.90
11597;DHT22;5854;48.072;16.286;2023-06-14T01:06:19;18.30;51.50
11597;DHT22;5854;48.072;16.286;2023-06-14T01:09:15;18.60;53.50
11597;DHT22;5854;48.072;16.286;2023-06-14T01:12:02;18.40;48.80
11597;DHT22;5854;48.072;16.286;2023-06-14T01:14:55;18.20;53.30
11597;DHT22;5854;48.072;16.286;2023-06-14T01:18:09;18.40;52.10
11597;DHT22;5854;48.072;16.286;2023-06-14T01:21:19;18.20;53.70
11597;DHT22;5854;48.072;16.286;2023-06-14T01:27:52;17.70;51.90
11597;DHT22;5854;48.072;16.286;2023-06-14T01:30:58;17.60;53.60
11597;DHT22;5854;48.072;16.286;2023-06-14T01:33:49;17.70;54.80
11597;DHT22;5854;48.072;16.286;2023-06-14T01:36:46;17.70;51.70
11597;DHT22;5854;48.072;16.286;2023-06-14T01:42:52;17.60;53.10
11597;DHT22;5854;48.072;16.286;2023-06-14T01:45:42;18.00;54.60
11597;DHT22;5854;48.072;16.286;2023-06-14T01:49:10;18.30;53.90
11597;DHT22;5854;48.072;16.286;2023-06-14T01:52:05;18.30;52.30
11597;DHT22;5854;48.072;16.286;2023-06-14T01:55:09;17.80;51.80
11597;DHT22;5854;48.072;16.286;2023-06-14T01:58:00;17.90;51.30
11597;DHT22;5854;48.072;16.286;2023-06-14T02:00:41;17.80;50.90
11597;DHT22;5854;48.072;16.286;2023-06-14T02:03:45;17.60;52.40
11597;DHT22;5854;48.072;16.286;2023-06-14T02:06:33;17.70;53.40
11597;DHT22;5854;48.072;16.286;2023-06-14T02:09:31;17.80;53.70
11597;DHT22;5854;48.072;16.286;2023-06-14T02:12:39;17.90;54.00
11597;DHT22;5854;48.072;16.286;2023-06-14T02:15:42;18.00;52.10
11597;DHT22;5854;48.072;16.286;2023-06-14T02:18:45;17.70;53.00
11597;DHT22;5854;48.072;16.286;2023-06-14T02:21:24;17.70;54.90
11597;DHT22;5854;48.072;16.286;2023-06-14T02:24:09;17.90;54.30
11597;DHT22;5854;48.072;16.286;2023-06-14T02:27:07;17.80;52.30
11597;DHT22;5854;48.072;16.286;2023-06-14T02:30:06;17.70;55.20
11597;DHT22;5854;48.072;16.286;2023-06-14T02:33:02;18.00;53.90
11597;DHT22;5854;48.072;16.286;2023-06-14T02:35:52;18.20;53.00
11597;DHT22;5854;48.072;16.286;2023-06-14T02:38:59;17.90;51.60
11597;DHT22;5854;48.072;16.286;2023-06-14T02:42:02;17.90;53.70
11597;DHT22;5854;48.072;16.286;2023-06-14T02:45:00;17.80;54.50
11597;DHT22;5854;48.072;16.286;2023-06-14T02:48:16;17.90;54.60
11597;DHT22;5854;48.072;16.286;2023-06-14T02:51:14;18.10;54.10
11597;DHT22;5854;48.072;16.286;2023-06-14T02:54:11;18.20;53.80
11597;DHT22;5854;48.072;16.286;2023-06-14T02:56:58;18.30;53.30
11597;DHT22;5854;48.072;16.286;2023-06-14T02:59:59;17.90;52.40
11597;DHT22;5854;48.072;16.286;2023-06-14T03:02:49;17.50;53.10
11597;DHT22;5854;48.072;16.286;2023-06-14T03:05:44;17.60;55.00
11597;DHT22;5854;48.072;16.286;2023-06-14T03:08:43;17.80;55.00
11597;DHT22;5854;48.072;16.286;2023-06-14T03:11:29;17.80;54.90
11597;DHT22;5854;48.072;16.286;2023-06-14T03:14:14;17.60;53.00
11597;DHT22;5854;48.072;16.286;2023-06-14T03:17:08;17.60;54.70
11597;DHT22;5854;48.072;16.286;2023-06-14T03:20:12;17.70;54.30
11597;DHT22;5854;48.072;16.286;2023-06-14T03:23:12;17.50;54.80
11597;DHT22;5854;48.072;16.286;2023-06-14T03:25:55;17.70;54.90
11597;DHT22;5854;48.072;16.286;2023-06-14T03:28:34;17.70;54.20
11597;DHT22;5854;48.072;16.286;2023-06-14T03:31:26;17.80;54.30
11597;DHT22;5854;48.072;16.286;2023-06-14T03:34:15;17.70;54.60
11597;DHT22;5854;48.072;16.286;2023-06-14T03:37:23;17.70;52.50
11597;DHT22;5854;48.072;16.286;2023-06-14T03:40:15;17.60;54.60
11597;DHT22;5854;48.072;16.286;2023-06-14T03:43:03;17.70;54.70
11597;DHT22;5854;48.072;16.286;2023-06-14T03:46:03;17.60;53.40
11597;DHT22;5854;48.072;16.286;2023-06-14T03:49:08;17.50;55.10
11597;DHT22;5854;48.072;16.286;2023-06-14T03:52:04;17.70;54.90
11597;DHT22;5854;48.072;16.286;2023-06-14T03:54:58;17.80;54.50
11597;DHT22;5854;48.072;16.286;2023-06-14T03:57:46;17.60;54.50
11597;DHT22;5854;48.072;16.286;2023-06-14T04:00:46;17.70;54.80
11597;DHT22;5854;48.072;16.286;2023-06-14T04:03:32;17.80;54.60
11597;DHT22;5854;48.072;16.286;2023-06-14T04:06:29;17.70;54.30
11597;DHT22;5854;48.072;16.286;2023-06-14T04:09:30;17.70;54.00
11597;DHT22;5854;48.072;16.286;2023-06-14T04:12:31;17.30;55.10
11597;DHT22;5854;48.072;16.286;2023-06-14T04:15:27;17.10;56.00
11597;DHT22;5854;48.072;16.286;2023-06-14T04:18:19;17.20;55.40
11597;DHT22;5854;48.072;16.286;2023-06-14T04:21:34;17.50;52.70
11597;DHT22;5854;48.072;16.286;2023-06-14T04:24:36;17.50;52.00
11597;DHT22;5854;48.072;16.286;2023-06-14T04:27:34;17.50;50.90
11597;DHT22;5854;48.072;16.286;2023-06-14T04:30:22;17.60;50.90
11597;DHT22;5854;48.072;16.286;2023-06-14T04:32:54;17.60;53.40
11597;DHT22;5854;48.072;16.286;2023-06-14T04:35:24;17.60;52.00
11597;DHT22;5854;48.072;16.286;2023-06-14T04:38:04;17.30;53.50
11597;DHT22;5854;48.072;16.286;2023-06-14T04:40:40;17.50;54.00
11597;DHT22;5854;48.072;16.286;2023-06-14T04:43:15;17.30;54.50
11597;DHT22;5854;48.072;16.286;2023-06-14T04:45:54;17.20;53.70
11597;DHT22;5854;48.072;16.286;2023-06-14T04:48:39;17.40;52.90
11597;DHT22;5854;48.072;16.286;2023-06-14T04:51:17;17.50;53.40
11597;DHT22;5854;48.072;16.286;2023-06-14T04:54:14;17.60;53.70
11597;DHT22;5854;48.072;16.286;2023-06-14T04:57:13;17.70;52.80
11597;DHT22;5854;48.072;16.286;2023-06-14T05:00:09;17.70;53.10
11597;DHT22;5854;48.072;16.286;2023-06-14T05:02:57;17.80;52.10
11597;DHT22;5854;48.072;16.286;2023-06-14T05:05:59;17.90;52.40
11597;DHT22;5854;48.072;16.286;2023-06-14T05:08:49;18.00;52.10
11597;DHT22;5854;48.072;16.286;2023-06-14T05:11:40;17.70;53.20
11597;DHT22;5854;48.072;16.286;2023-06-14T05:14:37;17.70;52.90
11597;DHT22;5854;48.072;16.286;2023-06-14T05:17:45;18.00;51.00
11597;DHT22;5854;48.072;16.286;2023-06-14T05:20:43;18.20;51.60
11597;DHT22;5854;48.072;16.286;2023-06-14T05:23:31;18.30;49.90
11597;DHT22;5854;48.072;16.286;2023-06-14T05:26:17;18.50;48.90
11597;DHT22;5854;48.072;16.286;2023-06-14T05:29:14;18.60;49.70
11597;DHT22;5854;48.072;16.286;2023-06-14T05:32:09;18.00;49.20
11597;DHT22;5854;48.072;16.286;2023-06-14T05:35:19;18.10;51.40
11597;DHT22;5854;48.072;16.286;2023-06-14T05:38:03;18.10;51.30
11597;DHT22;5854;48.072;16.286;2023-06-14T05:40:57;18.10;50.70
11597;DHT22;5854;48.072;16.286;2023-06-14T05:44:01;17.90;48.20
11597;DHT22;5854;48.072;16.286;2023-06-14T05:46:54;17.80;50.50
11597;DHT22;5854;48.072;16.286;2023-06-14T05:49:54;18.20;51.40
11597;DHT22;5854;48.072;16.286;2023-06-14T05:52:54;18.30;51.00
11597;DHT22;5854;48.072;16.286;2023-06-14T05:55:30;18.40;51.10
11597;DHT22;5854;48.072;16.286;2023-06-14T05:58:22;18.60;50.40
11597;DHT22;5854;48.072;16.286;2023-06-14T06:01:13;18.50;48.90
11597;DHT22;5854;48.072;16.286;2023-06-14T06:04:14;18.60;50.50
11597;DHT22;5854;48.072;16.286;2023-06-14T06:06:48;19.10;49.00
11597;DHT22;5854;48.072;16.286;2023-06-14T06:09:49;20.00;46.70
11597;DHT22;5854;48.072;16.286;2023-06-14T06:12:42;20.60;44.70
11597;DHT22;5854;48.072;16.286;2023-06-14T06:15:32;21.20;43.70
11597;DHT22;5854;48.072;16.286;2023-06-14T06:18:30;21.20;43.10
11597;DHT22;5854;48.072;16.286;2023-06-14T06:21:37;21.50;40.50
11597;DHT22;5854;48.072;16.286;2023-06-14T06:24:39;21.40;42.60
11597;DHT22;5854;48.072;16.286;2023-06-14T06:27:13;20.30;44.10
11597;DHT22;5854;48.072;16.286;2023-06-14T06:30:05;20.30;45.20
11597;DHT22;5854;48.072;16.286;2023-06-14T06:56:18;20.60;42.70
11597;DHT22;5854;48.072;16.286;2023-06-14T07:01:21;20.80;42.40
11597;DHT22;5854;48.072;16.286;2023-06-14T07:03:53;21.40;42.30
11597;DHT22;5854;48.072;16.286;2023-06-14T07:06:30;22.20;40.30
11597;DHT22;5854;48.072;16.286;2023-06-14T07:09:00;22.30;40.60
11597;DHT22;5854;48.072;16.286;2023-06-14T07:11:34;23.20;38.60
11597;DHT22;5854;48.072;16.286;2023-06-14T07:14:02;23.80;37.00
11597;DHT22;5854;48.072;16.286;2023-06-14T07:16:33;24.40;36.20
11597;DHT22;5854;48.072;16.286;2023-06-14T07:19:13;24.60;33.20
11597;DHT22;5854;48.072;16.286;2023-06-14T07:21:44;25.30;32.20
11597;DHT22;5854;48.072;16.286;2023-06-14T07:24:30;26.30;31.50
11597;DHT22;5854;48.072;16.286;2023-06-14T07:27:13;25.20;31.70
11597;DHT22;5854;48.072;16.286;2023-06-14T07:29:48;23.70;34.70
11597;DHT22;5854;48.072;16.286;2023-06-14T07:32:27;22.70;37.80
11597;DHT22;5854;48.072;16.286;2023-06-14T07:34:58;22.20;37.70
11597;DHT22;5854;48.072;16.286;2023-06-14T07:37:35;21.60;37.20
11597;DHT22;5854;48.072;16.286;2023-06-14T07:40:11;23.10;37.20
11597;DHT22;5854;48.072;16.286;2023-06-14T07:42:50;24.40;33.30
11597;DHT22;5854;48.072;16.286;2023-06-14T07:45:25;25.30;33.70
11597;DHT22;5854;48.072;16.286;2023-06-14T07:47:57;24.80;34.90
11597;DHT22;5854;48.072;16.286;2023-06-14T07:50:33;25.10;33.00
11597;DHT22;5854;48.072;16.286;2023-06-14T07:53:12;24.60;34.10
11597;DHT22;5854;48.072;16.286;2023-06-14T07:55:51;24.30;34.90
11597;DHT22;5854;48.072;16.286;2023-06-14T07:58:32;22.80;37.20
11597;DHT22;5854;48.072;16.286;2023-06-14T08:01:08;22.20;39.80
11597;DHT22;5854;48.072;16.286;2023-06-14T08:03:41;22.30;39.40
11597;DHT22;5854;48.072;16.286;2023-06-14T08:06:13;22.00;40.20
11597;DHT22;5854;48.072;16.286;2023-06-14T08:08:43;21.70;40.00
11597;DHT22;5854;48.072;16.286;2023-06-14T08:11:16;21.60;41.20
11597;DHT22;5854;48.072;16.286;2023-06-14T08:13:53;21.50;41.50
11597;DHT22;5854;48.072;16.286;2023-06-14T08:16:26;21.40;40.70
11597;DHT22;5854;48.072;16.286;2023-06-14T08:19:00;21.60;41.50
11597;DHT22;5854;48.072;16.286;2023-06-14T08:21:32;21.60;41.00
11597;DHT22;5854;48.072;16.286;2023-06-14T08:24:04;21.60;42.40
11597;DHT22;5854;48.072;16.286;2023-06-14T08:26:39;21.70;40.90
11597;DHT22;5854;48.072;16.286;2023-06-14T08:29:15;21.60;41.40
11597;DHT22;5854;48.072;16.286;2023-06-14T08:31:48;21.40;42.10
11597;DHT22;5854;48.072;16.286;2023-06-14T08:34:22;21.20;40.80
11597;DHT22;5854;48.072;16.286;2023-06-14T08:36:53;20.80;42.40
11597;DHT22;5854;48.072;16.286;2023-06-14T08:39:26;21.00;43.40
11597;DHT22;5854;48.072;16.286;2023-06-14T08:41:55;21.40;42.80
11597;DHT22;5854;48.072;16.286;2023-06-14T08:44:28;21.40;42.00
11597;DHT22;5854;48.072;16.286;2023-06-14T08:47:02;21.50;40.80
11597;DHT22;5854;48.072;16.286;2023-06-14T08:49:36;21.70;42.20
11597;DHT22;5854;48.072;16.286;2023-06-14T08:52:11;21.70;40.70
11597;DHT22;5854;48.072;16.286;2023-06-14T08:54:44;21.60;41.00
11597;DHT22;5854;48.072;16.286;2023-06-14T08:57:18;21.90;41.50
11597;DHT22;5854;48.072;16.286;2023-06-14T08:59:54;22.00;41.40
11597;DHT22;5854;48.072;16.286;2023-06-14T09:02:32;21.80;39.00
11597;DHT22;5854;48.072;16.286;2023-06-14T09:05:02;22.00;40.30
11597;DHT22;5854;48.072;16.286;2023-06-14T09:07:34;22.30;40.50
11597;DHT22;5854;48.072;16.286;2023-06-14T09:10:06;22.40;39.20
11597;DHT22;5854;48.072;16.286;2023-06-14T09:12:38;22.60;37.70
11597;DHT22;5854;48.072;16.286;2023-06-14T09:15:13;22.60;38.30
11597;DHT22;5854;48.072;16.286;2023-06-14T09:17:46;22.40;40.00
11597;DHT22;5854;48.072;16.286;2023-06-14T09:20:19;22.50;38.90
11597;DHT22;5854;48.072;16.286;2023-06-14T09:22:53;22.60;39.80
11597;DHT22;5854;48.072;16.286;2023-06-14T09:25:27;22.90;38.50
11597;DHT22;5854;48.072;16.286;2023-06-14T09:28:01;23.00;37.50
11597;DHT22;5854;48.072;16.286;2023-06-14T09:30:37;22.70;37.80
11597;DHT22;5854;48.072;16.286;2023-06-14T09:33:16;22.80;37.10
11597;DHT22;5854;48.072;16.286;2023-06-14T09:35:52;22.90;38.30
11597;DHT22;5854;48.072;16.286;2023-06-14T09:38:25;22.60;40.00
11597;DHT22;5854;48.072;16.286;2023-06-14T09:40:57;22.50;38.10
11597;DHT22;5854;48.072;16.286;2023-06-14T09:43:28;22.60;40.70
11597;DHT22;5854;48.072;16.286;2023-06-14T09:46:02;23.10;36.90
11597;DHT22;5854;48.072;16.286;2023-06-14T09:48:32;23.00;36.60
11597;DHT22;5854;48.072;16.286;2023-06-14T09:51:07;23.30;36.50
11597;DHT22;5854;48.072;16.286;2023-06-14T09:53:43;23.50;39.00
11597;DHT22;5854;48.072;16.286;2023-06-14T09:56:15;23.10;37.90
11597;DHT22;5854;48.072;16.286;2023-06-14T09:58:49;23.10;36.70
11597;DHT22;5854;48.072;16.286;2023-06-14T10:01:28;23.20;39.90
11597;DHT22;5854;48.072;16.286;2023-06-14T10:04:01;23.60;36.90
11597;DHT22;5854;48.072;16.286;2023-06-14T10:06:35;23.80;38.70
11597;DHT22;5854;48.072;16.286;2023-06-14T10:09:11;23.80;38.10
11597;DHT22;5854;48.072;16.286;2023-06-14T10:11:44;23.70;37.20
11597;DHT22;5854;48.072;16.286;2023-06-14T10:14:28;23.60;38.50
11597;DHT22;5854;48.072;16.286;2023-06-14T10:17:03;23.80;36.60
11597;DHT22;5854;48.072;16.286;2023-06-14T10:19:43;23.30;37.80
11597;DHT22;5854;48.072;16.286;2023-06-14T10:22:21;23.10;36.30
11597;DHT22;5854;48.072;16.286;2023-06-14T10:25:01;23.30;36.40
11597;DHT22;5854;48.072;16.286;2023-06-14T10:27:41;23.40;35.60
11597;DHT22;5854;48.072;16.286;2023-06-14T10:30:16;23.00;38.50
11597;DHT22;5854;48.072;16.286;2023-06-14T10:33:08;22.80;36.20
11597;DHT22;5854;48.072;16.286;2023-06-14T10:35:45;23.10;39.60
11597;DHT22;5854;48.072;16.286;2023-06-14T10:38:29;23.00;37.80
11597;DHT22;5854;48.072;16.286;2023-06-14T10:41:08;22.80;35.50
11597;DHT22;5854;48.072;16.286;2023-06-14T10:43:44;23.00;39.50
11597;DHT22;5854;48.072;16.286;2023-06-14T10:46:20;23.10;35.90
11597;DHT22;5854;48.072;16.286;2023-06-14T10:48:58;22.70;34.00
11597;DHT22;5854;48.072;16.286;2023-06-14T10:51:39;22.80;38.30
11597;DHT22;5854;48.072;16.286;2023-06-14T10:54:18;23.20;40.00
11597;DHT22;5854;48.072;16.286;2023-06-14T10:57:02;23.10;39.10
11597;DHT22;5854;48.072;16.286;2023-06-14T10:59:41;22.80;38.00
11597;DHT22;5854;48.072;16.286;2023-06-14T11:02:18;22.50;35.60
11597;DHT22;5854;48.072;16.286;2023-06-14T11:05:10;22.70;36.50
11597;DHT22;5854;48.072;16.286;2023-06-14T11:08:02;22.60;34.40
11597;DHT22;5854;48.072;16.286;2023-06-14T11:18:41;23.20;38.80
11597;DHT22;5854;48.072;16.286;2023-06-14T11:21:14;23.40;34.50
11597;DHT22;5854;48.072;16.286;2023-06-14T11:23:50;23.40;31.30
11597;DHT22;5854;48.072;16.286;2023-06-14T11:26:25;23.70;37.50
11597;DHT22;5854;48.072;16.286;2023-06-14T11:50:04;25.00;33.20
11597;DHT22;5854;48.072;16.286;2023-06-14T11:52:40;24.10;35.30
11597;DHT22;5854;48.072;16.286;2023-06-14T11:55:29;23.30;35.40
11597;DHT22;5854;48.072;16.286;2023-06-14T11:58:24;22.80;38.60
11597;DHT22;5854;48.072;16.286;2023-06-14T12:01:03;22.90;39.30
11597;DHT22;5854;48.072;16.286;2023-06-14T12:03:33;22.90;39.20
11597;DHT22;5854;48.072;16.286;2023-06-14T12:06:07;22.70;37.60
11597;DHT22;5854;48.072;16.286;2023-06-14T12:11:06;22.30;38.60
11597;DHT22;5854;48.072;16.286;2023-06-14T12:13:45;22.40;38.30
11597;DHT22;5854;48.072;16.286;2023-06-14T12:18:59;22.00;39.10
11597;DHT22;5854;48.072;16.286;2023-06-14T12:21:46;22.20;40.80
11597;DHT22;5854;48.072;16.286;2023-06-14T12:24:30;22.30;38.80
11597;DHT22;5854;48.072;16.286;2023-06-14T12:27:13;22.10;40.30
11597;DHT22;5854;48.072;16.286;2023-06-14T12:29:59;22.40;41.70
11597;DHT22;5854;48.072;16.286;2023-06-14T12:32:37;22.30;40.00
11597;DHT22;5854;48.072;16.286;2023-06-14T12:35:16;23.80;36.70
11597;DHT22;5854;48.072;16.286;2023-06-14T12:37:59;24.60;36.60
11597;DHT22;5854;48.072;16.286;2023-06-14T12:40:30;23.80;34.40
11597;DHT22;5854;48.072;16.286;2023-06-14T12:43:00;24.70;34.60
11597;DHT22;5854;48.072;16.286;2023-06-14T12:45:32;25.70;36.20
11597;DHT22;5854;48.072;16.286;2023-06-14T12:48:11;27.00;33.90
11597;DHT22;5854;48.072;16.286;2023-06-14T12:50:44;27.50;29.20
11597;DHT22;5854;48.072;16.286;2023-06-14T12:53:23;27.00;31.60
11597;DHT22;5854;48.072;16.286;2023-06-14T12:56:01;27.70;29.40
11597;DHT22;5854;48.072;16.286;2023-06-14T12:58:40;27.40;27.20
11597;DHT22;5854;48.072;16.286;2023-06-14T13:01:14;28.00;28.30
11597;DHT22;5854;48.072;16.286;2023-06-14T13:03:53;28.10;24.70
11597;DHT22;5854;48.072;16.286;2023-06-14T13:06:32;27.10;25.20
11597;DHT22;5854;48.072;16.286;2023-06-14T13:09:13;27.10;31.80
11597;DHT22;5854;48.072;16.286;2023-06-14T13:11:48;26.80;30.30
11597;DHT22;5854;48.072;16.286;2023-06-14T13:14:27;27.20;27.70
11597;DHT22;5854;48.072;16.286;2023-06-14T13:17:01;26.50;28.00
11597;DHT22;5854;48.072;16.286;2023-06-14T13:19:49;26.70;30.10
11597;DHT22;5854;48.072;16.286;2023-06-14T13:22:30;26.40;31.10
11597;DHT22;5854;48.072;16.286;2023-06-14T13:25:23;26.70;29.10
11597;DHT22;5854;48.072;16.286;2023-06-14T13:28:20;26.60;29.60
11597;DHT22;5854;48.072;16.286;2023-06-14T13:31:10;25.90;33.00
11597;DHT22;5854;48.072;16.286;2023-06-14T13:34:11;25.80;31.90
11597;DHT22;5854;48.072;16.286;2023-06-14T13:37:02;25.80;35.70
11597;DHT22;5854;48.072;16.286;2023-06-14T13:39:35;25.90;37.10
11597;DHT22;5854;48.072;16.286;2023-06-14T13:42:07;26.10;30.70
11597;DHT22;5854;48.072;16.286;2023-06-14T13:44:34;25.80;31.70
11597;DHT22;5854;48.072;16.286;2023-06-14T13:47:09;25.90;32.70
11597;DHT22;5854;48.072;16.286;2023-06-14T13:49:36;26.00;32.60
11597;DHT22;5854;48.072;16.286;2023-06-14T13:52:09;25.40;35.30
11597;DHT22;5854;48.072;16.286;2023-06-14T13:54:41;25.60;34.60
11597;DHT22;5854;48.072;16.286;2023-06-14T13:57:14;25.00;33.60
11597;DHT22;5854;48.072;16.286;2023-06-14T13:59:46;25.10;35.00
11597;DHT22;5854;48.072;16.286;2023-06-14T14:02:15;24.60;32.00
11597;DHT22;5854;48.072;16.286;2023-06-14T14:04:48;24.60;33.50
11597;DHT22;5854;48.072;16.286;2023-06-14T14:07:18;24.30;34.70
11597;DHT22;5854;48.072;16.286;2023-06-14T14:09:48;24.80;35.50
11597;DHT22;5854;48.072;16.286;2023-06-14T14:12:22;25.30;34.60
11597;DHT22;5854;48.072;16.286;2023-06-14T14:14:56;25.30;32.50
11597;DHT22;5854;48.072;16.286;2023-06-14T14:17:27;25.40;34.10
11597;DHT22;5854;48.072;16.286;2023-06-14T14:19:55;25.50;33.20
11597;DHT22;5854;48.072;16.286;2023-06-14T14:22:28;25.70;36.30
11597;DHT22;5854;48.072;16.286;2023-06-14T14:25:01;25.80;33.60
11597;DHT22;5854;48.072;16.286;2023-06-14T14:27:34;25.40;34.20
11597;DHT22;5854;48.072;16.286;2023-06-14T14:30:13;25.30;33.90
11597;DHT22;5854;48.072;16.286;2023-06-14T14:32:49;25.60;37.50
11597;DHT22;5854;48.072;16.286;2023-06-14T14:35:18;25.30;32.20
11597;DHT22;5854;48.072;16.286;2023-06-14T14:37:59;24.80;33.20
11597;DHT22;5854;48.072;16.286;2023-06-14T14:40:36;25.10;33.40
11597;DHT22;5854;48.072;16.286;2023-06-14T14:43:28;24.80;31.50
11597;DHT22;5854;48.072;16.286;2023-06-14T14:46:13;24.30;32.70
11597;DHT22;5854;48.072;16.286;2023-06-14T14:48:55;23.80;35.90
11597;DHT22;5854;48.072;16.286;2023-06-14T14:51:50;24.00;36.30
11597;DHT22;5854;48.072;16.286;2023-06-14T14:54:38;24.50;39.10
11597;DHT22;5854;48.072;16.286;2023-06-14T14:57:36;25.10;37.90
11597;DHT22;5854;48.072;16.286;2023-06-14T15:00:20;25.00;33.50
11597;DHT22;5854;48.072;16.286;2023-06-14T15:02:57;24.90;39.30
11597;DHT22;5854;48.072;16.286;2023-06-14T15:05:31;25.30;34.10
11597;DHT22;5854;48.072;16.286;2023-06-14T15:08:04;25.50;32.80
11597;DHT22;5854;48.072;16.286;2023-06-14T15:11:09;25.50;35.80
11597;DHT22;5854;48.072;16.286;2023-06-14T15:13:44;24.90;33.30
11597;DHT22;5854;48.072;16.286;2023-06-14T15:16:21;24.70;34.90
11597;DHT22;5854;48.072;16.286;2023-06-14T15:18:55;24.80;37.10
11597;DHT22;5854;48.072;16.286;2023-06-14T15:21:37;24.80;32.20
11597;DHT22;5854;48.072;16.286;2023-06-14T15:24:22;24.80;36.10
11597;DHT22;5854;48.072;16.286;2023-06-14T15:32:19;24.80;33.20
11597;DHT22;5854;48.072;16.286;2023-06-14T15:51:57;25.40;32.20
11597;DHT22;5854;48.072;16.286;2023-06-14T16:02:34;24.60;31.10
11597;DHT22;5854;48.072;16.286;2023-06-14T16:05:09;24.60;34.40
11597;DHT22;5854;48.072;16.286;2023-06-14T16:07:54;24.40;33.20
11597;DHT22;5854;48.072;16.286;2023-06-14T16:10:27;24.40;34.90
11597;DHT22;5854;48.072;16.286;2023-06-14T16:13:24;24.40;35.60
11597;DHT22;5854;48.072;16.286;2023-06-14T16:16:18;24.20;35.30
11597;DHT22;5854;48.072;16.286;2023-06-14T16:19:10;24.00;34.60
11597;DHT22;5854;48.072;16.286;2023-06-14T16:24:19;24.80;33.50
11597;DHT22;5854;48.072;16.286;2023-06-14T16:26:53;25.20;34.20
11597;DHT22;5854;48.072;16.286;2023-06-14T16:31:57;25.30;32.20
11597;DHT22;5854;48.072;16.286;2023-06-14T16:34:30;25.40;30.60
11597;DHT22;5854;48.072;16.286;2023-06-14T16:37:07;25.60;29.70
11597;DHT22;5854;48.072;16.286;2023-06-14T16:42:47;25.60;34.40
11597;DHT22;5854;48.072;16.286;2023-06-14T16:45:29;26.20;30.50
11597;DHT22;5854;48.072;16.286;2023-06-14T16:51:38;26.20;31.00
11597;DHT22;5854;48.072;16.286;2023-06-14T16:56:53;25.90;33.40
11597;DHT22;5854;48.072;16.286;2023-06-14T16:59:55;25.90;36.00
11597;DHT22;5854;48.072;16.286;2023-06-14T17:02:38;25.50;34.00
11597;DHT22;5854;48.072;16.286;2023-06-14T17:05:40;25.00;31.60
11597;DHT22;5854;48.072;16.286;2023-06-14T17:08:50;24.80;30.80
11597;DHT22;5854;48.072;16.286;2023-06-14T17:11:54;24.90;32.50
11597;DHT22;5854;48.072;16.286;2023-06-14T17:14:43;25.00;37.70
11597;DHT22;5854;48.072;16.286;2023-06-14T17:17:32;24.70;37.50
11597;DHT22;5854;48.072;16.286;2023-06-14T17:20:14;24.30;34.20
11597;DHT22;5854;48.072;16.286;2023-06-14T17:22:51;24.50;36.30
11597;DHT22;5854;48.072;16.286;2023-06-14T17:25:25;24.50;38.20
11597;DHT22;5854;48.072;16.286;2023-06-14T17:35:44;24.20;37.10
11597;DHT22;5854;48.072;16.286;2023-06-14T17:38:21;23.90;37.90
11597;DHT22;5854;48.072;16.286;2023-06-14T17:41:38;23.70;37.00
11597;DHT22;5854;48.072;16.286;2023-06-14T18:23:35;23.80;39.60
11597;DHT22;5854;48.072;16.286;2023-06-14T18:26:36;23.70;39.50
11597;DHT22;5854;48.072;16.286;2023-06-14T18:31:00;23.30;39.60
11597;DHT22;5854;48.072;16.286;2023-06-14T18:34:01;22.90;43.10
11597;DHT22;5854;48.072;16.286;2023-06-14T18:36:48;23.10;43.40
11597;DHT22;5854;48.072;16.286;2023-06-14T18:39:45;23.20;43.60
11597;DHT22;5854;48.072;16.286;2023-06-14T18:42:48;23.30;42.30
11597;DHT22;5854;48.072;16.286;2023-06-14T18:45:38;23.40;41.50
